createdAt,value
2016-06-09T00:00:10.780Z,1012.73
2016-06-09T00:01:10.751Z,1012.69
2016-06-09T00:02:10.755Z,1012.67
2016-06-09T00:03:10.711Z,1012.68
2016-06-09T00:04:10.683Z,1012.7
2016-06-09T00:05:10.670Z,1012.76
2016-06-09T00:06:10.642Z,1012.7
2016-06-09T00:07:10.629Z,1012.68
2016-06-09T00:08:10.601Z,1012.68
2016-06-09T00:09:10.589Z,1012.7
2016-06-09T00:10:10.560Z,1012.71
2016-06-09T00:11:10.533Z,1012.67
2016-06-09T00:12:10.519Z,1012.7
2016-06-09T00:13:10.491Z,1012.69
2016-06-09T00:14:10.463Z,1012.69
2016-06-09T00:15:10.450Z,1012.65
2016-06-09T00:16:10.422Z,1012.65
2016-06-09T00:17:10.409Z,1012.66
2016-06-09T00:18:10.382Z,1012.67
2016-06-09T00:19:10.368Z,1012.66
2016-06-09T00:20:10.341Z,1012.67
2016-06-09T00:21:10.329Z,1012.68
2016-06-09T00:22:10.300Z,1012.68
2016-06-09T00:23:10.272Z,1012.64
2016-06-09T00:24:10.245Z,1012.64
2016-06-09T00:25:10.231Z,1012.66
2016-06-09T00:26:10.203Z,1012.63
2016-06-09T00:27:10.191Z,1012.63
2016-06-09T00:28:10.163Z,1012.57
2016-06-09T00:29:10.150Z,1012.62
2016-06-09T00:30:10.121Z,1012.59
2016-06-09T00:31:10.094Z,1012.6
2016-06-09T00:32:10.081Z,1012.59
2016-06-09T00:33:10.912Z,1012.62
2016-06-09T00:34:10.040Z,1012.64
2016-06-09T00:35:10.012Z,1012.61
2016-06-09T00:36:09.985Z,1012.61
2016-06-09T00:37:09.971Z,1012.63
2016-06-09T00:38:09.943Z,1012.66
2016-06-09T00:39:09.931Z,1012.68
2016-06-09T00:40:09.902Z,1012.65
2016-06-09T00:41:09.874Z,1012.66
2016-06-09T00:42:09.862Z,1012.67
2016-06-09T00:43:09.834Z,1012.66
2016-06-09T00:44:09.820Z,1012.61
2016-06-09T00:45:09.793Z,1012.65
2016-06-09T00:46:09.764Z,1012.62
2016-06-09T00:47:09.752Z,1012.64
2016-06-09T00:48:09.724Z,1012.66
2016-06-09T00:49:09.711Z,1012.63
2016-06-09T00:50:09.683Z,1012.63
2016-06-09T00:51:09.655Z,1012.64
2016-06-09T00:52:09.643Z,1012.66
2016-06-09T00:53:09.614Z,1012.64
2016-06-09T00:54:09.602Z,1012.65
2016-06-09T00:55:09.574Z,1012.64
2016-06-09T00:56:09.545Z,1012.69
2016-06-09T00:57:09.532Z,1012.66
2016-06-09T00:58:09.505Z,1012.63
2016-06-09T00:59:09.477Z,1012.62
2016-06-09T01:00:09.464Z,1012.64
2016-06-09T01:01:09.436Z,1012.6
2016-06-09T01:02:09.423Z,1012.64
2016-06-09T01:03:09.395Z,1012.64
2016-06-09T01:04:09.461Z,1012.64
2016-06-09T01:05:09.354Z,1012.68
2016-06-09T01:06:09.327Z,1012.67
2016-06-09T01:07:09.313Z,1012.7
2016-06-09T01:08:09.285Z,1012.72
2016-06-09T01:09:09.257Z,1012.69
2016-06-09T01:10:09.245Z,1012.72
2016-06-09T01:11:09.217Z,1012.67
2016-06-09T01:12:09.204Z,1012.66
2016-06-09T01:13:09.176Z,1012.69
2016-06-09T01:14:09.148Z,1012.66
2016-06-09T01:15:09.135Z,1012.61
2016-06-09T01:16:09.107Z,1012.64
2016-06-09T01:17:09.079Z,1012.66
2016-06-09T01:18:09.238Z,1012.68
2016-06-09T01:19:09.039Z,1012.67
2016-06-09T01:20:09.025Z,1012.71
2016-06-09T01:21:08.997Z,1012.67
2016-06-09T01:22:08.970Z,1012.69
2016-06-09T01:23:08.957Z,1012.65
2016-06-09T01:24:08.928Z,1012.64
2016-06-09T01:25:08.901Z,1012.61
2016-06-09T01:26:08.888Z,1012.63
2016-06-09T01:27:08.860Z,1012.6
2016-06-09T01:28:08.830Z,1012.61
2016-06-09T01:29:08.819Z,1012.61
2016-06-09T01:30:08.792Z,1012.64
2016-06-09T01:31:08.778Z,1012.6
2016-06-09T01:32:08.750Z,1012.64
2016-06-09T01:33:08.721Z,1012.65
2016-06-09T01:34:09.147Z,1012.64
2016-06-09T01:35:08.681Z,1012.64
2016-06-09T01:36:08.668Z,1012.67
2016-06-09T01:37:08.641Z,1012.65
2016-06-09T01:38:08.611Z,1012.67
2016-06-09T01:39:08.584Z,1012.7
2016-06-09T01:40:08.572Z,1012.66
2016-06-09T01:41:08.543Z,1012.66
2016-06-09T01:42:08.531Z,1012.67
2016-06-09T01:43:08.502Z,1012.67
2016-06-09T01:44:08.474Z,1012.71
2016-06-09T01:45:08.462Z,1012.7
2016-06-09T01:46:08.434Z,1012.72
2016-06-09T01:47:08.405Z,1012.64
2016-06-09T01:48:08.393Z,1012.68
2016-06-09T01:49:08.365Z,1012.64
2016-06-09T01:50:08.337Z,1012.66
2016-06-09T01:51:08.324Z,1012.67
2016-06-09T01:52:08.296Z,1012.66
2016-06-09T01:53:08.268Z,1012.62
2016-06-09T01:54:08.255Z,1012.63
2016-06-09T01:55:08.226Z,1012.61
2016-06-09T01:56:08.214Z,1012.56
2016-06-09T01:57:08.186Z,1012.58
2016-06-09T01:58:08.158Z,1012.56
2016-06-09T01:59:08.145Z,1012.58
2016-06-09T02:00:08.118Z,1012.64
2016-06-09T02:01:08.089Z,1012.6
2016-06-09T02:02:08.076Z,1012.59
2016-06-09T02:03:08.049Z,1012.57
2016-06-09T02:04:08.208Z,1012.59
2016-06-09T02:05:08.008Z,1012.61
2016-06-09T02:06:07.980Z,1012.58
2016-06-09T02:07:07.951Z,1012.59
2016-06-09T02:08:07.939Z,1012.57
2016-06-09T02:09:07.911Z,1012.6
2016-06-09T02:10:07.882Z,1012.59
2016-06-09T02:11:07.870Z,1012.57
2016-06-09T02:12:07.841Z,1012.6
2016-06-09T02:13:07.813Z,1012.59
2016-06-09T02:14:07.802Z,1012.61
2016-06-09T02:15:07.772Z,1012.59
2016-06-09T02:16:07.745Z,1012.55
2016-06-09T02:17:07.732Z,1012.6
2016-06-09T02:18:07.704Z,1012.59
2016-06-09T02:19:08.206Z,1012.59
2016-06-09T02:20:07.663Z,1012.59
2016-06-09T02:21:07.651Z,1012.62
2016-06-09T02:22:07.621Z,1012.61
2016-06-09T02:23:07.594Z,1012.65
2016-06-09T02:24:07.582Z,1012.67
2016-06-09T02:25:07.553Z,1012.67
2016-06-09T02:26:07.525Z,1012.67
2016-06-09T02:27:07.512Z,1012.66
2016-06-09T02:28:07.484Z,1012.66
2016-06-09T02:29:07.473Z,1012.68
2016-06-09T02:30:07.444Z,1012.67
2016-06-09T02:31:07.416Z,1012.68
2016-06-09T02:32:07.403Z,1012.64
2016-06-09T02:33:07.375Z,1012.65
2016-06-09T02:34:07.363Z,1012.64
2016-06-09T02:35:07.334Z,1012.66
2016-06-09T02:36:07.306Z,1012.64
2016-06-09T02:37:07.293Z,1012.63
2016-06-09T02:38:07.265Z,1012.64
2016-06-09T02:39:07.238Z,1012.63
2016-06-09T02:40:07.224Z,1012.62
2016-06-09T02:41:07.196Z,1012.62
2016-06-09T02:42:07.184Z,1012.67
2016-06-09T02:43:07.156Z,1012.65
2016-06-09T02:44:07.127Z,1012.62
2016-06-09T02:45:07.115Z,1012.64
2016-06-09T02:46:07.086Z,1012.66
2016-06-09T02:47:07.074Z,1012.63
2016-06-09T02:48:07.046Z,1012.59
2016-06-09T02:49:07.017Z,1012.6
2016-06-09T02:50:07.005Z,1012.63
2016-06-09T02:51:06.977Z,1012.6
2016-06-09T02:52:06.964Z,1012.65
2016-06-09T02:53:06.936Z,1012.62
2016-06-09T02:54:06.908Z,1012.63
2016-06-09T02:55:06.895Z,1012.66
2016-06-09T02:56:06.868Z,1012.69
2016-06-09T02:57:06.854Z,1012.66
2016-06-09T02:58:06.826Z,1012.69
2016-06-09T02:59:06.799Z,1012.66
2016-06-09T03:00:06.786Z,1012.68
2016-06-09T03:01:06.757Z,1012.66
2016-06-09T03:02:06.730Z,1012.69
2016-06-09T03:03:06.717Z,1012.67
2016-06-09T03:04:06.861Z,1012.69
2016-06-09T03:05:06.676Z,1012.68
2016-06-09T03:06:06.665Z,1012.68
2016-06-09T03:07:06.635Z,1012.71
2016-06-09T03:08:06.607Z,1012.68
2016-06-09T03:09:06.580Z,1012.69
2016-06-09T03:10:06.567Z,1012.66
2016-06-09T03:11:06.538Z,1012.66
2016-06-09T03:12:06.526Z,1012.69
2016-06-09T03:13:06.498Z,1012.66
2016-06-09T03:14:06.486Z,1012.64
2016-06-09T03:15:06.456Z,1012.69
2016-06-09T03:16:06.429Z,1012.68
2016-06-09T03:17:06.401Z,1012.67
2016-06-09T03:18:06.388Z,1012.64
2016-06-09T03:19:06.360Z,1012.66
2016-06-09T03:20:06.332Z,1012.64
2016-06-09T03:21:06.319Z,1012.64
2016-06-09T03:22:06.291Z,1012.64
2016-06-09T03:23:06.278Z,1012.64
2016-06-09T03:24:06.250Z,1012.6
2016-06-09T03:25:06.222Z,1012.61
2016-06-09T03:26:06.210Z,1012.6
2016-06-09T03:27:06.182Z,1012.61
2016-06-09T03:28:06.153Z,1012.65
2016-06-09T03:29:06.141Z,1012.65
2016-06-09T03:30:06.113Z,1012.67
2016-06-09T03:31:06.100Z,1012.69
2016-06-09T03:32:06.072Z,1012.69
2016-06-09T03:33:06.060Z,1012.68
2016-06-09T03:34:06.031Z,1012.65
2016-06-09T03:35:06.003Z,1012.67
2016-06-09T03:36:05.991Z,1012.65
2016-06-09T03:37:05.963Z,1012.72
2016-06-09T03:38:05.949Z,1012.72
2016-06-09T03:39:05.922Z,1012.71
2016-06-09T03:40:05.909Z,1012.74
2016-06-09T03:41:05.881Z,1012.73
2016-06-09T03:42:05.852Z,1012.74
2016-06-09T03:43:05.840Z,1012.75
2016-06-09T03:44:05.812Z,1012.76
2016-06-09T03:45:05.784Z,1012.72
2016-06-09T03:46:05.771Z,1012.75
2016-06-09T03:47:05.743Z,1012.76
2016-06-09T03:48:05.730Z,1012.77
2016-06-09T03:49:06.296Z,1012.75
2016-06-09T03:50:06.284Z,1012.71
2016-06-09T03:51:05.661Z,1012.75
2016-06-09T03:52:05.633Z,1012.76
2016-06-09T03:53:05.606Z,1012.78
2016-06-09T03:54:05.593Z,1012.79
2016-06-09T03:55:05.564Z,1012.83
2016-06-09T03:56:05.552Z,1012.79
2016-06-09T03:57:05.524Z,1012.8
2016-06-09T03:58:05.496Z,1012.79
2016-06-09T03:59:05.483Z,1012.73
2016-06-09T04:00:05.455Z,1012.73
2016-06-09T04:01:05.426Z,1012.71
2016-06-09T04:02:05.414Z,1012.72
2016-06-09T04:03:05.387Z,1012.72
2016-06-09T04:04:05.374Z,1012.69
2016-06-09T04:05:05.345Z,1012.7
2016-06-09T04:06:05.317Z,1012.68
2016-06-09T04:07:05.305Z,1012.65
2016-06-09T04:08:05.277Z,1012.65
2016-06-09T04:09:05.263Z,1012.69
2016-06-09T04:10:05.236Z,1012.66
2016-06-09T04:11:05.207Z,1012.64
2016-06-09T04:12:05.195Z,1012.64
2016-06-09T04:13:05.167Z,1012.61
2016-06-09T04:14:05.154Z,1012.59
2016-06-09T04:15:05.126Z,1012.59
2016-06-09T04:16:05.098Z,1012.58
2016-06-09T04:17:05.086Z,1012.61
2016-06-09T04:18:05.057Z,1012.64
2016-06-09T04:19:05.044Z,1012.62
2016-06-09T04:20:05.017Z,1012.64
2016-06-09T04:21:05.004Z,1012.58
2016-06-09T04:22:04.975Z,1012.59
2016-06-09T04:23:04.948Z,1012.57
2016-06-09T04:24:04.935Z,1012.56
2016-06-09T04:25:04.907Z,1012.59
2016-06-09T04:26:04.878Z,1012.59
2016-06-09T04:27:04.866Z,1012.58
2016-06-09T04:28:04.853Z,1012.56
2016-06-09T04:29:04.825Z,1012.53
2016-06-09T04:30:04.798Z,1012.54
2016-06-09T04:31:04.769Z,1012.5
2016-06-09T04:32:04.757Z,1012.48
2016-06-09T04:33:04.728Z,1012.48
2016-06-09T04:34:04.716Z,1012.48
2016-06-09T04:35:04.688Z,1012.51
2016-06-09T04:36:04.674Z,1012.51
2016-06-09T04:37:04.647Z,1012.52
2016-06-09T04:38:04.634Z,1012.51
2016-06-09T04:39:04.606Z,1012.53
2016-06-09T04:40:04.578Z,1012.53
2016-06-09T04:41:04.565Z,1012.52
2016-06-09T04:42:04.537Z,1012.49
2016-06-09T04:43:04.524Z,1012.53
2016-06-09T04:44:04.497Z,1012.49
2016-06-09T04:45:04.483Z,1012.51
2016-06-09T04:46:04.455Z,1012.5
2016-06-09T04:47:04.443Z,1012.49
2016-06-09T04:48:04.415Z,1012.5
2016-06-09T04:49:04.730Z,1012.51
2016-06-09T04:50:04.374Z,1012.48
2016-06-09T04:51:04.346Z,1012.46
2016-06-09T04:52:04.333Z,1012.5
2016-06-09T04:53:04.305Z,1012.47
2016-06-09T04:54:04.293Z,1012.49
2016-06-09T04:55:04.264Z,1012.47
2016-06-09T04:56:04.236Z,1012.46
2016-06-09T04:57:04.223Z,1012.44
2016-06-09T04:58:04.196Z,1012.47
2016-06-09T04:59:04.184Z,1012.46
2016-06-09T05:00:04.154Z,1012.45
2016-06-09T05:01:04.143Z,1012.45
2016-06-09T05:02:04.114Z,1012.43
2016-06-09T05:03:04.102Z,1012.4
2016-06-09T05:04:04.074Z,1012.43
2016-06-09T05:05:04.060Z,1012.44
2016-06-09T05:06:04.033Z,1012.43
2016-06-09T05:07:04.004Z,1012.44
2016-06-09T05:08:03.992Z,1012.44
2016-06-09T05:09:03.965Z,1012.43
2016-06-09T05:10:03.951Z,1012.41
2016-06-09T05:11:03.923Z,1012.4
2016-06-09T05:12:03.911Z,1012.39
2016-06-09T05:13:03.898Z,1012.4
2016-06-09T05:14:03.869Z,1012.42
2016-06-09T05:15:03.842Z,1012.39
2016-06-09T05:16:03.829Z,1012.35
2016-06-09T05:17:03.801Z,1012.39
2016-06-09T05:18:03.788Z,1012.34
2016-06-09T05:19:03.760Z,1012.37
2016-06-09T05:20:03.732Z,1012.37
2016-06-09T05:21:03.719Z,1012.35
2016-06-09T05:22:03.691Z,1012.4
2016-06-09T05:23:03.678Z,1012.36
2016-06-09T05:24:03.650Z,1012.39
2016-06-09T05:25:03.622Z,1012.39
2016-06-09T05:26:03.610Z,1012.37
2016-06-09T05:27:03.582Z,1012.39
2016-06-09T05:28:03.569Z,1012.38
2016-06-09T05:29:03.540Z,1012.36
2016-06-09T05:30:03.529Z,1012.39
2016-06-09T05:31:03.500Z,1012.38
2016-06-09T05:32:03.488Z,1012.42
2016-06-09T05:33:03.459Z,1012.39
2016-06-09T05:34:03.431Z,1012.43
2016-06-09T05:35:03.419Z,1012.41
2016-06-09T05:36:03.391Z,1012.45
2016-06-09T05:37:03.378Z,1012.45
2016-06-09T05:38:03.349Z,1012.42
2016-06-09T05:39:03.337Z,1012.41
2016-06-09T05:40:03.310Z,1012.44
2016-06-09T05:41:03.281Z,1012.46
2016-06-09T05:42:03.269Z,1012.44
2016-06-09T05:43:03.240Z,1012.43
2016-06-09T05:44:03.227Z,1012.43
2016-06-09T05:45:03.200Z,1012.42
2016-06-09T05:46:03.186Z,1012.43
2016-06-09T05:47:03.159Z,1012.46
2016-06-09T05:48:03.146Z,1012.4
2016-06-09T05:49:03.118Z,1012.44
2016-06-09T05:50:03.136Z,1012.44
2016-06-09T05:51:03.077Z,1012.43
2016-06-09T05:52:03.049Z,1012.42
2016-06-09T05:53:03.036Z,1012.46
2016-06-09T05:54:03.008Z,1012.43
2016-06-09T05:55:02.996Z,1012.46
2016-06-09T05:56:02.968Z,1012.45
2016-06-09T05:57:02.954Z,1012.47
2016-06-09T05:58:02.927Z,1012.45
2016-06-09T05:59:02.899Z,1012.49
2016-06-09T06:00:02.886Z,1012.5
2016-06-09T06:01:02.874Z,1012.48
2016-06-09T06:02:02.846Z,1012.56
2016-06-09T06:03:02.817Z,1012.51
2016-06-09T06:04:02.805Z,1012.58
2016-06-09T06:05:02.776Z,1012.57
2016-06-09T06:06:02.748Z,1012.51
2016-06-09T06:07:02.735Z,1012.54
2016-06-09T06:08:02.707Z,1012.52
2016-06-09T06:09:02.694Z,1012.5
2016-06-09T06:10:02.667Z,1012.5
2016-06-09T06:11:02.639Z,1012.51
2016-06-09T06:12:02.626Z,1012.52
2016-06-09T06:13:02.614Z,1012.52
2016-06-09T06:14:02.585Z,1012.52
2016-06-09T06:15:02.557Z,1012.56
2016-06-09T06:16:02.545Z,1012.54
2016-06-09T06:17:02.516Z,1012.55
2016-06-09T06:18:02.504Z,1012.54
2016-06-09T06:19:02.476Z,1012.53
2016-06-09T06:20:02.448Z,1012.56
2016-06-09T06:21:02.436Z,1012.56
2016-06-09T06:22:02.407Z,1012.56
2016-06-09T06:23:02.395Z,1012.53
2016-06-09T06:24:02.366Z,1012.5
2016-06-09T06:25:02.354Z,1012.52
2016-06-09T06:26:02.326Z,1012.53
2016-06-09T06:27:02.297Z,1012.53
2016-06-09T06:28:02.285Z,1012.5
2016-06-09T06:29:02.256Z,1012.53
2016-06-09T06:30:02.245Z,1012.55
2016-06-09T06:31:02.216Z,1012.54
2016-06-09T06:32:02.203Z,1012.56
2016-06-09T06:33:02.175Z,1012.58
2016-06-09T06:34:02.147Z,1012.58
2016-06-09T06:35:02.134Z,1012.58
2016-06-09T06:36:02.122Z,1012.57
2016-06-09T06:37:02.094Z,1012.58
2016-06-09T06:38:02.066Z,1012.56
2016-06-09T06:39:02.053Z,1012.55
2016-06-09T06:40:02.040Z,1012.51
2016-06-09T06:41:02.012Z,1012.49
2016-06-09T06:42:01.984Z,1012.45
2016-06-09T06:43:01.971Z,1012.46
2016-06-09T06:44:01.944Z,1012.42
2016-06-09T06:45:01.930Z,1012.42
2016-06-09T06:46:01.902Z,1012.38
2016-06-09T06:47:01.890Z,1012.41
2016-06-09T06:48:01.862Z,1012.41
2016-06-09T06:49:01.834Z,1012.41
2016-06-09T06:50:01.821Z,1012.44
2016-06-09T06:51:01.793Z,1012.44
2016-06-09T06:52:01.780Z,1012.45
2016-06-09T06:53:01.752Z,1012.46
2016-06-09T06:54:01.740Z,1012.39
2016-06-09T06:55:01.711Z,1012.42
2016-06-09T06:56:01.699Z,1012.42
2016-06-09T06:57:01.671Z,1012.41
2016-06-09T06:58:01.658Z,1012.35
2016-06-09T06:59:01.646Z,1012.38
2016-06-09T07:00:01.618Z,1012.37
2016-06-09T07:01:01.604Z,1012.37
2016-06-09T07:02:01.576Z,1012.35
2016-06-09T07:03:01.565Z,1012.35
2016-06-09T07:04:01.536Z,1012.32
2016-06-09T07:05:01.523Z,1012.28
2016-06-09T07:06:01.511Z,1012.37
2016-06-09T07:07:01.483Z,1012.39
2016-06-09T07:08:01.470Z,1012.38
2016-06-09T07:09:01.442Z,1012.4
2016-06-09T07:10:01.429Z,1012.41
2016-06-09T07:11:01.418Z,1012.39
2016-06-09T07:12:01.388Z,1012.41
2016-06-09T07:13:01.376Z,1012.42
2016-06-09T07:14:01.348Z,1012.42
2016-06-09T07:15:01.336Z,1012.41
2016-06-09T07:16:01.307Z,1012.42
2016-06-09T07:17:01.295Z,1012.48
2016-06-09T07:18:01.266Z,1012.49
2016-06-09T07:19:01.254Z,1012.46
2016-06-09T07:20:01.335Z,1012.44
2016-06-09T07:21:01.213Z,1012.45
2016-06-09T07:22:01.201Z,1012.47
2016-06-09T07:23:01.172Z,1012.45
2016-06-09T07:24:01.160Z,1012.49
2016-06-09T07:25:01.147Z,1012.46
2016-06-09T07:26:01.120Z,1012.44
2016-06-09T07:27:01.092Z,1012.47
2016-06-09T07:28:01.079Z,1012.43
2016-06-09T07:29:01.065Z,1012.43
2016-06-09T07:30:01.038Z,1012.42
2016-06-09T07:31:01.026Z,1012.43
2016-06-09T07:32:00.997Z,1012.42
2016-06-09T07:33:00.985Z,1012.4
2016-06-09T07:34:00.955Z,1012.41
2016-06-09T07:35:00.944Z,1012.41
2016-06-09T07:36:00.931Z,1012.37
2016-06-09T07:37:00.903Z,1012.36
2016-06-09T07:38:00.875Z,1012.34
2016-06-09T07:39:00.862Z,1012.4
2016-06-09T07:40:00.834Z,1012.41
2016-06-09T07:41:00.821Z,1012.38
2016-06-09T07:42:00.809Z,1012.34
2016-06-09T07:43:00.781Z,1012.32
2016-06-09T07:44:00.768Z,1012.34
2016-06-09T07:45:00.756Z,1012.31
2016-06-09T07:46:00.728Z,1012.32
2016-06-09T07:47:00.700Z,1012.34
2016-06-09T07:48:00.687Z,1012.3
2016-06-09T07:49:00.659Z,1012.3
2016-06-09T07:50:00.646Z,1012.27
2016-06-09T07:51:01.196Z,1012.24
2016-06-09T07:52:00.606Z,1012.22
2016-06-09T07:53:00.577Z,1012.28
2016-06-09T07:54:00.564Z,1012.24
2016-06-09T07:55:00.552Z,1012.25
2016-06-09T07:56:00.524Z,1012.23
2016-06-09T07:57:00.512Z,1012.24
2016-06-09T07:58:00.484Z,1012.25
2016-06-09T07:59:00.470Z,1012.25
2016-06-09T08:00:00.458Z,1012.35
2016-06-09T08:01:00.430Z,1012.32
2016-06-09T08:02:00.402Z,1012.3
2016-06-09T08:03:00.389Z,1012.35
2016-06-09T08:04:00.377Z,1012.3
2016-06-09T08:05:00.348Z,1012.28
2016-06-09T08:06:00.337Z,1012.31
2016-06-09T08:07:00.307Z,1012.3
2016-06-09T08:08:00.296Z,1012.32
2016-06-09T08:09:00.283Z,1012.3
2016-06-09T08:10:00.254Z,1012.29
2016-06-09T08:11:00.227Z,1012.29
2016-06-09T08:12:00.214Z,1012.31
2016-06-09T08:13:00.200Z,1012.31
2016-06-09T08:14:00.173Z,1012.3
2016-06-09T08:15:00.160Z,1012.36
2016-06-09T08:16:00.132Z,1012.33
2016-06-09T08:17:00.120Z,1012.35
2016-06-09T08:18:00.091Z,1012.33
2016-06-09T08:19:00.079Z,1012.32
2016-06-09T08:20:00.052Z,1012.35
2016-06-09T08:21:00.038Z,1012.39
2016-06-09T08:22:00.026Z,1012.37
2016-06-09T08:22:59.997Z,1012.35
2016-06-09T08:23:59.985Z,1012.35
2016-06-09T08:24:59.959Z,1012.33
2016-06-09T08:25:59.989Z,1012.37
2016-06-09T08:27:00.019Z,1012.37
2016-06-09T08:28:00.033Z,1012.38
2016-06-09T08:29:00.064Z,1012.35
2016-06-09T08:30:00.077Z,1012.39
2016-06-09T08:31:00.079Z,1012.37
2016-06-09T08:32:00.067Z,1012.36
2016-06-09T08:33:00.069Z,1012.38
2016-06-09T08:34:00.072Z,1012.33
2016-06-09T08:35:00.433Z,1012.39
2016-06-09T08:36:00.567Z,1012.34
2016-06-09T08:37:00.045Z,1012.32
2016-06-09T08:38:00.022Z,1012.32
2016-06-09T08:39:00.014Z,1012.3
2016-06-09T08:40:00.007Z,1012.36
2016-06-09T08:40:59.980Z,1012.32
2016-06-09T08:41:59.955Z,1012.3
2016-06-09T08:42:59.945Z,1012.3
2016-06-09T08:43:59.934Z,1012.33
2016-06-09T08:44:59.907Z,1012.34
2016-06-09T08:45:59.895Z,1012.3
2016-06-09T08:46:59.883Z,1012.32
2016-06-09T08:47:59.856Z,1012.32
2016-06-09T08:48:59.845Z,1012.31
2016-06-09T08:49:59.817Z,1012.32
2016-06-09T08:51:00.070Z,1012.35
2016-06-09T08:51:59.792Z,1012.33
2016-06-09T08:52:59.780Z,1012.33
2016-06-09T08:53:59.753Z,1012.31
2016-06-09T08:54:59.741Z,1012.33
2016-06-09T08:55:59.713Z,1012.32
2016-06-09T08:56:59.700Z,1012.37
2016-06-09T08:57:59.672Z,1012.35
2016-06-09T08:58:59.660Z,1012.38
2016-06-09T08:59:59.646Z,1012.38
2016-06-09T09:00:59.618Z,1012.37
2016-06-09T09:01:59.605Z,1012.39
2016-06-09T09:02:59.593Z,1012.4
2016-06-09T09:03:59.564Z,1012.41
2016-06-09T09:04:59.537Z,1012.43
2016-06-09T09:05:59.712Z,1012.45
2016-06-09T09:06:59.512Z,1012.44
2016-06-09T09:07:59.484Z,1012.4
2016-06-09T09:08:59.471Z,1012.41
2016-06-09T09:09:59.443Z,1012.4
2016-06-09T09:10:59.431Z,1012.37
2016-06-09T09:11:59.418Z,1012.37
2016-06-09T09:12:59.390Z,1012.35
2016-06-09T09:13:59.378Z,1012.38
2016-06-09T09:14:59.381Z,1012.42
2016-06-09T09:15:59.336Z,1012.38
2016-06-09T09:16:59.324Z,1012.37
2016-06-09T09:17:59.296Z,1012.39
2016-06-09T09:18:59.283Z,1012.35
2016-06-09T09:19:59.521Z,1012.34
2016-06-09T09:20:59.258Z,1012.32
2016-06-09T09:21:59.230Z,1012.32
2016-06-09T09:22:59.202Z,1012.34
2016-06-09T09:23:59.189Z,1012.29
2016-06-09T09:24:59.161Z,1012.26
2016-06-09T09:25:59.148Z,1012.27
2016-06-09T09:26:59.120Z,1012.27
2016-06-09T09:27:59.108Z,1012.29
2016-06-09T09:28:59.095Z,1012.3
2016-06-09T09:29:59.066Z,1012.29
2016-06-09T09:30:59.070Z,1012.29
2016-06-09T09:31:59.041Z,1012.26
2016-06-09T09:32:59.013Z,1012.28
2016-06-09T09:33:59.001Z,1012.26
2016-06-09T09:34:58.989Z,1012.25
2016-06-09T09:35:59.773Z,1012.26
2016-06-09T09:36:58.948Z,1012.29
2016-06-09T09:37:58.920Z,1012.33
2016-06-09T09:38:58.907Z,1012.33
2016-06-09T09:39:58.894Z,1012.29
2016-06-09T09:40:58.866Z,1012.32
2016-06-09T09:41:58.854Z,1012.31
2016-06-09T09:42:58.841Z,1012.29
2016-06-09T09:43:58.813Z,1012.29
2016-06-09T09:44:58.801Z,1012.26
2016-06-09T09:45:58.773Z,1012.25
2016-06-09T09:46:58.760Z,1012.25
2016-06-09T09:47:58.746Z,1012.28
2016-06-09T09:48:58.719Z,1012.28
2016-06-09T09:49:58.706Z,1012.28
2016-06-09T09:50:58.695Z,1012.33
2016-06-09T09:51:58.667Z,1012.34
2016-06-09T09:52:58.653Z,1012.35
2016-06-09T09:53:58.625Z,1012.35
2016-06-09T09:54:58.613Z,1012.34
2016-06-09T09:55:58.600Z,1012.35
2016-06-09T09:56:58.571Z,1012.35
2016-06-09T09:57:58.560Z,1012.36
2016-06-09T09:58:58.530Z,1012.37
2016-06-09T09:59:58.519Z,1012.32
2016-06-09T10:00:58.506Z,1012.33
2016-06-09T10:01:58.478Z,1012.31
2016-06-09T10:02:58.465Z,1012.38
2016-06-09T10:03:58.453Z,1012.3
2016-06-09T10:04:58.424Z,1012.3
2016-06-09T10:05:58.412Z,1012.28
2016-06-09T10:06:58.383Z,1012.31
2016-06-09T10:07:58.371Z,1012.3
2016-06-09T10:08:58.359Z,1012.31
2016-06-09T10:09:58.330Z,1012.29
2016-06-09T10:10:58.318Z,1012.31
2016-06-09T10:11:58.306Z,1012.29
2016-06-09T10:12:58.293Z,1012.32
2016-06-09T10:13:58.265Z,1012.27
2016-06-09T10:14:58.252Z,1012.3
2016-06-09T10:15:58.224Z,1012.29
2016-06-09T10:16:58.211Z,1012.34
2016-06-09T10:17:58.199Z,1012.3
2016-06-09T10:18:58.170Z,1012.3
2016-06-09T10:19:58.158Z,1012.31
2016-06-09T10:20:58.146Z,1012.28
2016-06-09T10:21:58.117Z,1012.32
2016-06-09T10:22:58.105Z,1012.28
2016-06-09T10:23:58.093Z,1012.25
2016-06-09T10:24:58.063Z,1012.29
2016-06-09T10:25:58.051Z,1012.29
2016-06-09T10:26:58.024Z,1012.29
2016-06-09T10:27:58.011Z,1012.29
2016-06-09T10:28:57.998Z,1012.3
2016-06-09T10:29:57.970Z,1012.3
2016-06-09T10:30:57.958Z,1012.25
2016-06-09T10:31:57.929Z,1012.27
2016-06-09T10:32:57.917Z,1012.24
2016-06-09T10:33:57.904Z,1012.24
2016-06-09T10:34:57.891Z,1012.28
2016-06-09T10:35:57.864Z,1012.27
2016-06-09T10:36:57.850Z,1012.23
2016-06-09T10:37:57.822Z,1012.26
2016-06-09T10:38:57.810Z,1012.28
2016-06-09T10:39:57.798Z,1012.28
2016-06-09T10:40:57.770Z,1012.23
2016-06-09T10:41:57.757Z,1012.21
2016-06-09T10:42:57.729Z,1012.24
2016-06-09T10:43:57.716Z,1012.22
2016-06-09T10:44:57.704Z,1012.24
2016-06-09T10:45:57.692Z,1012.25
2016-06-09T10:46:57.663Z,1012.27
2016-06-09T10:47:57.650Z,1012.3
2016-06-09T10:48:57.623Z,1012.3
2016-06-09T10:49:57.609Z,1012.25
2016-06-09T10:50:57.582Z,1012.26
2016-06-09T10:51:57.569Z,1012.22
2016-06-09T10:52:57.557Z,1012.23
2016-06-09T10:53:57.544Z,1012.22
2016-06-09T10:54:57.515Z,1012.2
2016-06-09T10:55:57.503Z,1012.2
2016-06-09T10:56:57.491Z,1012.16
2016-06-09T10:57:57.462Z,1012.2
2016-06-09T10:58:57.450Z,1012.21
2016-06-09T10:59:57.422Z,1012.24
2016-06-09T11:00:57.409Z,1012.2
2016-06-09T11:02:01.053Z,1012.23
2016-06-09T11:02:57.384Z,1012.22
2016-06-09T11:03:57.356Z,1012.22
2016-06-09T11:04:57.344Z,1012.22
2016-06-09T11:05:57.486Z,1012.25
2016-06-09T11:06:57.303Z,1012.22
2016-06-09T11:07:57.290Z,1012.23
2016-06-09T11:08:57.262Z,1012.22
2016-06-09T11:09:57.249Z,1012.27
2016-06-09T11:10:57.237Z,1012.29
2016-06-09T11:11:57.224Z,1012.27
2016-06-09T11:12:57.196Z,1012.27
2016-06-09T11:13:57.183Z,1012.26
2016-06-09T11:14:57.155Z,1012.27
2016-06-09T11:15:57.142Z,1012.27
2016-06-09T11:16:57.130Z,1012.23
2016-06-09T11:17:57.101Z,1012.22
2016-06-09T11:18:57.090Z,1012.25
2016-06-09T11:19:57.076Z,1012.25
2016-06-09T11:20:57.049Z,1012.28
2016-06-09T11:21:57.036Z,1012.26
2016-06-09T11:22:57.024Z,1012.24
2016-06-09T11:24:11.730Z,1012.22
2016-06-09T11:24:56.983Z,1012.18
2016-06-09T11:25:56.986Z,1012.24
2016-06-09T11:26:56.958Z,1012.2
2016-06-09T11:27:56.930Z,1012.2
2016-06-09T11:28:56.917Z,1012.25
2016-06-09T11:29:56.905Z,1012.26
2016-06-09T11:30:56.876Z,1012.24
2016-06-09T11:31:56.863Z,1012.28
2016-06-09T11:32:56.852Z,1012.26
2016-06-09T11:33:56.823Z,1012.25
2016-06-09T11:34:56.810Z,1012.3
2016-06-09T11:35:56.798Z,1012.24
2016-06-09T11:36:56.770Z,1012.24
2016-06-09T11:37:56.757Z,1012.25
2016-06-09T11:38:56.745Z,1012.26
2016-06-09T11:39:56.716Z,1012.19
2016-06-09T11:40:56.705Z,1012.22
2016-06-09T11:41:56.691Z,1012.21
2016-06-09T11:42:56.664Z,1012.16
2016-06-09T11:43:56.651Z,1012.2
2016-06-09T11:44:56.639Z,1012.21
2016-06-09T11:45:56.610Z,1012.2
2016-06-09T11:46:56.598Z,1012.23
2016-06-09T11:47:56.585Z,1012.23
2016-06-09T11:48:56.556Z,1012.19
2016-06-09T11:49:56.544Z,1012.19
2016-06-09T11:50:56.532Z,1012.21
2016-06-09T11:51:56.519Z,1012.15
2016-06-09T11:52:56.491Z,1012.21
2016-06-09T11:53:56.479Z,1012.14
2016-06-09T11:54:56.465Z,1012.12
2016-06-09T11:55:56.438Z,1012.19
2016-06-09T11:56:56.425Z,1012.17
2016-06-09T11:57:56.397Z,1012.12
2016-06-09T11:58:56.385Z,1012.16
2016-06-09T11:59:56.371Z,1012.14
2016-06-09T12:00:56.359Z,1012.2
2016-06-09T12:01:56.331Z,1012.18
2016-06-09T12:02:56.319Z,1012.18
2016-06-09T12:03:56.290Z,1012.15
2016-06-09T12:04:56.278Z,1012.21
2016-06-09T12:05:56.265Z,1012.2
2016-06-09T12:06:56.612Z,1012.21
2016-06-09T12:07:56.224Z,1012.2